Zeyno — 9HA3528 — position and weather

sailwx.info

Track history (hours):
 
Tides and Currents Weather Stations Pressure Air Temp Water Temp Dewpoint Dewpoint Depression Visibility Wind Speed Wind Dir Waves Ship Positions

Zeyno

Last reported at 2018-Jun-08 09:40 UTC. Time now 2018-Jun-19 08:03 UTC.
Position N 36°19' E 015°01'.
Warning: this ship's position is 10 days out of date.

Length 199 m; draft 12.8 m.

Type: Cargo ship. MMSI: 229698000.

Date/timePositionNaut miles runAvg speedWind from/ knotsBaromVisibWave heightAir tempDewpointWater temp
2018-Jun-08 09:40N 36°19' E 015°01'212.6
2018-Jun-08 09:30N 36°19' E 014°58'611.9
2018-Jun-08 09:00N 36°20' E 014°51'611.5
2018-Jun-08 08:30N 36°21' E 014°44'611.4
2018-Jun-08 08:00N 36°22' E 014°37'611.6
2018-Jun-08 07:29N 36°24' E 014°30'611.6
2018-Jun-08 06:59N 36°25' E 014°23'2412.0
2018-Jun-08 04:58N 36°31' E 013°54'612.6
2018-Jun-08 04:30N 36°33' E 013°47'612.7
2018-Jun-08 04:00N 36°34' E 013°39'  
2018-Jun-05 02:13N 36°05' W 005°21'3 8.8
2018-Jun-05 01:50N 36°08' W 005°23'1 1.1
2018-Jun-05 01:19N 36°08' W 005°23'0 0.0
2018-Jun-05 00:49N 36°08' W 005°23'0 0.0
2018-Jun-05 00:07N 36°08' W 005°23'0 0.0
2018-Jun-04 23:37N 36°08' W 005°23'0 0.0
2018-Jun-04 23:19N 36°08' W 005°23'0 0.0
2018-Jun-04 22:55N 36°08' W 005°23'4 0.6
2018-Jun-04 16:10N 36°06' W 005°18'5 0.4
2018-Jun-04 05:34N 36°07' W 005°13'0 0.9
2018-Jun-04 05:30N 36°07' W 005°13'1 1.1
2018-Jun-04 04:59N 36°07' W 005°13'0 0.9
2018-Jun-04 04:30N 36°07' W 005°14'0 0.8
2018-Jun-04 04:00N 36°08' W 005°14'0 0.7
2018-Jun-04 03:30N 36°08' W 005°14'0 0.5
2018-Jun-04 03:00N 36°08' W 005°14'0 0.3
2018-Jun-04 02:30N 36°08' W 005°15'0 0.6
2018-Jun-04 02:00N 36°08' W 005°15'0 0.5
2018-Jun-04 01:29N 36°09' W 005°15'1 2.2
2018-Jun-04 01:00N 36°09' W 005°15'0 0.9
2018-Jun-04 00:30N 36°10' W 005°15'0 0.2
2018-Jun-04 00:00N 36°10' W 005°15'0 0.2
2018-Jun-03 23:30N 36°10' W 005°15'0 0.1
2018-Jun-03 22:59N 36°10' W 005°15'0 0.4
2018-Jun-03 22:30N 36°10' W 005°15'0 0.7
2018-Jun-03 22:00N 36°10' W 005°15'0 0.9
2018-Jun-03 21:29N 36°11' W 005°16'0 0.8
2018-Jun-03 21:00N 36°11' W 005°16'0 0.9
2018-Jun-03 20:29N 36°11' W 005°17'0 0.5
2018-Jun-03 19:59N 36°11' W 005°17'0 0.5
2018-Jun-03 19:30N 36°11' W 005°17'0 0.6
2018-Jun-03 18:59N 36°11' W 005°17'3 2.4
2018-Jun-03 17:51N 36°08' W 005°16'3 9.9
2018-Jun-03 17:30N 36°05' W 005°15'4 8.3
2018-Jun-03 17:00N 36°01' W 005°15'713.6
2018-Jun-03 16:30N 35°58' W 005°23'18012.5
2018-Jun-03 02:03N 36°18' W 009°05'112.1
2018-Jun-03 02:00N 36°19' W 009°06'612.1
2018-Jun-03 01:30N 36°20' W 009°13'611.9
2018-Jun-03 01:00N 36°21' W 009°20'  
2018-May-31 14:18N 37°24' W 023°54'412.7
2018-May-31 14:00N 37°24' W 023°59'613.0
2018-May-31 13:30N 37°24' W 024°07'612.9
2018-May-31 13:00N 37°24' W 024°15'612.8
2018-May-31 12:30N 37°24' W 024°24'612.4
2018-May-31 12:00N 37°24' W 024°31'612.3
2018-May-31 11:30N 37°24' W 024°39'612.4
2018-May-31 11:00N 37°24' W 024°47'612.4
2018-May-31 10:30N 37°24' W 024°55'612.6
2018-May-31 10:00N 37°24' W 025°03'612.7
2018-May-31 09:31N 37°25' W 025°11'612.6
2018-May-31 09:00N 37°24' W 025°19'612.3
2018-May-31 08:30N 37°25' W 025°26'612.5
2018-May-31 08:01N 37°24' W 025°34'612.7
2018-May-31 07:30N 37°24' W 025°42'612.8
2018-May-31 07:00N 37°25' W 025°50'612.6
2018-May-31 06:31N 37°24' W 025°58'612.2
2018-May-31 06:00N 37°25' W 026°06'612.1
2018-May-31 05:30N 37°25' W 026°13'612.3
2018-May-31 05:00N 37°25' W 026°21'612.4
2018-May-31 04:30N 37°25' W 026°29'612.3
2018-May-31 04:00N 37°25' W 026°37'612.0
2018-May-31 03:30N 37°25' W 026°44'612.0
2018-May-31 03:00N 37°25' W 026°52'612.5
2018-May-31 02:30N 37°25' W 026°60'4512.2
2018-May-30 22:50N 37°26' W 027°56'612.1
2018-May-30 22:19N 37°26' W 028°04'411.6
2018-May-30 21:59N 37°26' W 028°09'711.3
2018-May-30 21:22N 37°26' W 028°18'711.8
2018-May-30 20:46N 37°26' W 028°26'311.7
2018-May-30 20:30N 37°26' W 028°30'611.7
2018-May-30 20:00N 37°26' W 028°38'611.9
2018-May-30 19:30N 37°26' W 028°45'611.5
2018-May-30 19:00N 37°26' W 028°53'611.4
2018-May-30 18:30N 37°26' W 028°60'611.8
2018-May-30 18:00N 37°26' W 029°07'611.8
2018-May-30 17:30N 37°26' W 029°14'611.8
2018-May-30 17:00N 37°26' W 029°22'611.9
2018-May-30 16:30N 37°26' W 029°29'611.5
2018-May-30 15:57N 37°26' W 029°37'511.4
2018-May-30 15:30N 37°27' W 029°44'  
Track history (hours):
 
Tides and Currents Weather Stations Pressure Air Temp Water Temp Dewpoint Dewpoint Depression Visibility Wind Speed Wind Dir Waves Ship Positions

Zeyno

Last reported at 2018-Jun-08 09:40 UTC. Time now 2018-Jun-19 08:03 UTC.
Position N 36°19' E 015°01'.
Warning: this ship's position is 10 days out of date.

Length 199 m; draft 12.8 m.

Type: Cargo ship. MMSI: 229698000.

Date/timePositionNaut miles runAvg speedWind from/ knotsBaromVisibWave heightAir tempDewpointWater temp
2018-Jun-08 09:40N 36°19' E 015°01'212.6
2018-Jun-08 09:30N 36°19' E 014°58'611.9
2018-Jun-08 09:00N 36°20' E 014°51'611.5
2018-Jun-08 08:30N 36°21' E 014°44'611.4
2018-Jun-08 08:00N 36°22' E 014°37'611.6
2018-Jun-08 07:29N 36°24' E 014°30'611.6
2018-Jun-08 06:59N 36°25' E 014°23'2412.0
2018-Jun-08 04:58N 36°31' E 013°54'612.6
2018-Jun-08 04:30N 36°33' E 013°47'612.7
2018-Jun-08 04:00N 36°34' E 013°39'  
2018-Jun-05 02:13N 36°05' W 005°21'3 8.8
2018-Jun-05 01:50N 36°08' W 005°23'1 1.1
2018-Jun-05 01:19N 36°08' W 005°23'0 0.0
2018-Jun-05 00:49N 36°08' W 005°23'0 0.0
2018-Jun-05 00:07N 36°08' W 005°23'0 0.0
2018-Jun-04 23:37N 36°08' W 005°23'0 0.0
2018-Jun-04 23:19N 36°08' W 005°23'0 0.0
2018-Jun-04 22:55N 36°08' W 005°23'4 0.6
2018-Jun-04 16:10N 36°06' W 005°18'5 0.4
2018-Jun-04 05:34N 36°07' W 005°13'0 0.9
2018-Jun-04 05:30N 36°07' W 005°13'1 1.1
2018-Jun-04 04:59N 36°07' W 005°13'0 0.9
2018-Jun-04 04:30N 36°07' W 005°14'0 0.8
2018-Jun-04 04:00N 36°08' W 005°14'0 0.7
2018-Jun-04 03:30N 36°08' W 005°14'0 0.5
2018-Jun-04 03:00N 36°08' W 005°14'0 0.3
2018-Jun-04 02:30N 36°08' W 005°15'0 0.6
2018-Jun-04 02:00N 36°08' W 005°15'0 0.5
2018-Jun-04 01:29N 36°09' W 005°15'1 2.2
2018-Jun-04 01:00N 36°09' W 005°15'0 0.9
2018-Jun-04 00:30N 36°10' W 005°15'0 0.2
2018-Jun-04 00:00N 36°10' W 005°15'0 0.2
2018-Jun-03 23:30N 36°10' W 005°15'0 0.1
2018-Jun-03 22:59N 36°10' W 005°15'0 0.4
2018-Jun-03 22:30N 36°10' W 005°15'0 0.7
2018-Jun-03 22:00N 36°10' W 005°15'0 0.9
2018-Jun-03 21:29N 36°11' W 005°16'0 0.8
2018-Jun-03 21:00N 36°11' W 005°16'0 0.9
2018-Jun-03 20:29N 36°11' W 005°17'0 0.5
2018-Jun-03 19:59N 36°11' W 005°17'0 0.5
2018-Jun-03 19:30N 36°11' W 005°17'0 0.6
2018-Jun-03 18:59N 36°11' W 005°17'3 2.4
2018-Jun-03 17:51N 36°08' W 005°16'3 9.9
2018-Jun-03 17:30N 36°05' W 005°15'4 8.3
2018-Jun-03 17:00N 36°01' W 005°15'713.6
2018-Jun-03 16:30N 35°58' W 005°23'18012.5
2018-Jun-03 02:03N 36°18' W 009°05'112.1
2018-Jun-03 02:00N 36°19' W 009°06'612.1
2018-Jun-03 01:30N 36°20' W 009°13'611.9
2018-Jun-03 01:00N 36°21' W 009°20'  
2018-May-31 14:18N 37°24' W 023°54'412.7
2018-May-31 14:00N 37°24' W 023°59'613.0
2018-May-31 13:30N 37°24' W 024°07'612.9
2018-May-31 13:00N 37°24' W 024°15'612.8
2018-May-31 12:30N 37°24' W 024°24'612.4
2018-May-31 12:00N 37°24' W 024°31'612.3
2018-May-31 11:30N 37°24' W 024°39'612.4
2018-May-31 11:00N 37°24' W 024°47'612.4
2018-May-31 10:30N 37°24' W 024°55'612.6
2018-May-31 10:00N 37°24' W 025°03'612.7
2018-May-31 09:31N 37°25' W 025°11'612.6
2018-May-31 09:00N 37°24' W 025°19'612.3
2018-May-31 08:30N 37°25' W 025°26'612.5
2018-May-31 08:01N 37°24' W 025°34'612.7
2018-May-31 07:30N 37°24' W 025°42'612.8
2018-May-31 07:00N 37°25' W 025°50'612.6
2018-May-31 06:31N 37°24' W 025°58'612.2
2018-May-31 06:00N 37°25' W 026°06'612.1
2018-May-31 05:30N 37°25' W 026°13'612.3
2018-May-31 05:00N 37°25' W 026°21'612.4
2018-May-31 04:30N 37°25' W 026°29'612.3
2018-May-31 04:00N 37°25' W 026°37'612.0
2018-May-31 03:30N 37°25' W 026°44'612.0
2018-May-31 03:00N 37°25' W 026°52'612.5
2018-May-31 02:30N 37°25' W 026°60'4512.2
2018-May-30 22:50N 37°26' W 027°56'612.1
2018-May-30 22:19N 37°26' W 028°04'411.6
2018-May-30 21:59N 37°26' W 028°09'711.3
2018-May-30 21:22N 37°26' W 028°18'711.8
2018-May-30 20:46N 37°26' W 028°26'311.7
2018-May-30 20:30N 37°26' W 028°30'611.7
2018-May-30 20:00N 37°26' W 028°38'611.9
2018-May-30 19:30N 37°26' W 028°45'611.5
2018-May-30 19:00N 37°26' W 028°53'611.4
2018-May-30 18:30N 37°26' W 028°60'611.8
2018-May-30 18:00N 37°26' W 029°07'611.8
2018-May-30 17:30N 37°26' W 029°14'611.8
2018-May-30 17:00N 37°26' W 029°22'611.9
2018-May-30 16:30N 37°26' W 029°29'611.5
2018-May-30 15:57N 37°26' W 029°37'511.4
2018-May-30 15:30N 37°27' W 029°44'  

Dump ship's entire track history